Time;durP1;ratioP1;P1;durP2;ratioP2;P2;SDS_P1;SDS_P2;PMS_P1;PMS_P2;Temp;Humidity;BMP_temperature;BMP_pressure;BME280_temperature;BME280_humidity;BME280_pressure;Samples;Min_cycle;Max_cycle;Signal;HPM_P1;HPM_P2
2024/01/24 00:01:57;;;;;;;3.65;1.23;;;;;;;;;;5019996;28;41945;-66
2024/01/24 00:04:26;;;;;;;4.18;1.88;;;;;;;;;;5011054;28;42278;-63
2024/01/24 00:06:54;;;;;;;5.40;1.38;;;;;;;;;;5017078;28;41348;-65
2024/01/24 00:09:23;;;;;;;8.02;1.83;;;;;;;;;;5012160;28;41652;-66
2024/01/24 00:11:51;;;;;;;4.05;1.30;;;;;;;;;;5014103;28;41086;-66
2024/01/24 00:14:19;;;;;;;5.32;1.52;;;;;;;;;;5007880;28;43160;-65
2024/01/24 00:16:47;;;;;;;6.32;1.73;;;;;;;;;;5021522;28;42363;-65
2024/01/24 00:19:15;;;;;;;6.45;1.48;;;;;;;;;;5025929;28;41265;-65
2024/01/24 00:21:43;;;;;;;3.80;1.35;;;;;;;;;;5027195;28;42153;-65
2024/01/24 00:24:11;;;;;;;3.95;1.50;;;;;;;;;;5027515;28;41388;-65
2024/01/24 00:26:41;;;;;;;3.00;1.23;;;;;;;;;;5027661;28;41948;-65
2024/01/24 00:29:09;;;;;;;3.45;1.58;;;;;;;;;;5021189;28;43038;-65
2024/01/24 00:31:37;;;;;;;2.53;1.02;;;;;;;;;;5021195;28;42251;-65
2024/01/24 00:34:05;;;;;;;3.90;1.40;;;;;;;;;;5027028;28;41701;-65
2024/01/24 00:36:33;;;;;;;2.67;1.20;;;;;;;;;;5016892;28;41048;-65
2024/01/24 00:39:01;;;;;;;3.30;1.50;;;;;;;;;;5012729;28;41718;-65
2024/01/24 00:41:29;;;;;;;2.90;1.20;;;;;;;;;;5025919;28;42697;-64
2024/01/24 00:43:58;;;;;;;3.70;1.50;;;;;;;;;;5027465;28;41298;-65
2024/01/24 00:46:26;;;;;;;6.45;1.23;;;;;;;;;;5012165;28;41941;-65
2024/01/24 00:48:54;;;;;;;3.90;1.40;;;;;;;;;;5027181;28;42105;-66
2024/01/24 00:51:22;;;;;;;2.50;1.17;;;;;;;;;;5027334;28;42550;-66
2024/01/24 00:53:51;;;;;;;6.90;1.48;;;;;;;;;;5025823;28;42396;-65
2024/01/24 00:56:19;;;;;;;4.45;1.55;;;;;;;;;;5027384;28;41371;-65
2024/01/24 00:58:47;;;;;;;3.33;0.90;;;;;;;;;;5025395;28;41127;-65
2024/01/24 01:01:19;;;;;;;1.95;1.20;;;;;;;;;;5024767;28;42143;-65
2024/01/24 01:03:50;;;;;;;3.30;1.25;;;;;;;;;;5026843;28;41941;-65
2024/01/24 01:06:19;;;;;;;1.90;0.88;;;;;;;;;;5025298;28;41743;-65
2024/01/24 01:08:47;;;;;;;2.55;0.80;;;;;;;;;;5027002;28;42826;-65
2024/01/24 01:11:15;;;;;;;2.53;1.27;;;;;;;;;;5021039;28;40995;-65
2024/01/24 01:13:43;;;;;;;3.17;0.90;;;;;;;;;;5026594;28;41461;-65
2024/01/24 01:16:11;;;;;;;1.83;0.95;;;;;;;;;;5025719;28;42564;-65
2024/01/24 01:18:40;;;;;;;3.80;0.90;;;;;;;;;;5026944;28;42458;-65
2024/01/24 01:21:08;;;;;;;1.45;0.75;;;;;;;;;;5026160;28;43246;-65
2024/01/24 01:23:36;;;;;;;1.63;0.68;;;;;;;;;;5025879;28;41125;-65
2024/01/24 01:26:04;;;;;;;4.93;1.10;;;;;;;;;;5024984;28;41771;-65
2024/01/24 01:28:32;;;;;;;1.60;0.90;;;;;;;;;;5022573;28;42970;-65
2024/01/24 01:31:00;;;;;;;1.27;0.63;;;;;;;;;;5025695;28;40963;-65
2024/01/24 01:33:28;;;;;;;2.95;1.15;;;;;;;;;;5026133;28;42231;-65
2024/01/24 01:35:57;;;;;;;1.98;0.75;;;;;;;;;;5025239;28;41520;-65
2024/01/24 01:38:44;;;;;;;0.77;0.70;;;;;;;;;;5026117;28;41747;-65
2024/01/24 01:41:12;;;;;;;4.28;0.70;;;;;;;;;;5024173;28;41683;-65
2024/01/24 01:43:40;;;;;;;0.95;0.60;;;;;;;;;;5020403;28;40306;-65
2024/01/24 01:46:10;;;;;;;2.55;0.60;;;;;;;;;;5024715;28;41315;-65
2024/01/24 01:48:38;;;;;;;1.00;0.60;;;;;;;;;;5025803;28;41613;-65
2024/01/24 01:51:08;;;;;;;2.10;0.60;;;;;;;;;;5025644;28;41050;-65
2024/01/24 01:53:38;;;;;;;2.72;0.40;;;;;;;;;;5026305;28;42796;-65
2024/01/24 01:56:07;;;;;;;4.88;0.60;;;;;;;;;;5024448;28;42273;-65
2024/01/24 01:58:35;;;;;;;0.68;0.40;;;;;;;;;;5024100;28;41391;-65
2024/01/24 02:01:04;;;;;;;1.98;0.57;;;;;;;;;;5017058;28;41573;-65
2024/01/24 02:03:37;;;;;;;1.90;0.70;;;;;;;;;;5005823;28;40888;-65
2024/01/24 02:06:05;;;;;;;1.20;0.40;;;;;;;;;;5018624;28;42485;-65
2024/01/24 02:08:35;;;;;;;0.80;0.38;;;;;;;;;;5024192;28;42904;-65
2024/01/24 02:11:03;;;;;;;0.82;0.45;;;;;;;;;;5023270;28;40964;-65
2024/01/24 02:13:32;;;;;;;0.90;0.43;;;;;;;;;;5018953;28;41060;-65
2024/01/24 02:16:00;;;;;;;2.60;0.40;;;;;;;;;;5016655;28;42189;-65
2024/01/24 02:18:28;;;;;;;1.73;0.80;;;;;;;;;;5024680;28;41959;-65
2024/01/24 02:20:56;;;;;;;1.08;0.60;;;;;;;;;;5025936;28;42739;-65
2024/01/24 02:23:25;;;;;;;0.50;0.45;;;;;;;;;;5024110;28;41617;-65
2024/01/24 02:25:54;;;;;;;0.82;0.47;;;;;;;;;;5025652;28;41574;-65
2024/01/24 02:28:22;;;;;;;0.68;0.30;;;;;;;;;;5023836;28;41973;-66
2024/01/24 02:30:50;;;;;;;0.68;0.50;;;;;;;;;;5025245;28;41048;-65
2024/01/24 02:33:18;;;;;;;0.68;0.43;;;;;;;;;;5022117;28;42958;-65
2024/01/24 02:35:46;;;;;;;1.08;0.50;;;;;;;;;;5025448;28;42800;-65
2024/01/24 02:38:14;;;;;;;1.50;0.43;;;;;;;;;;5023792;28;40881;-65
2024/01/24 02:40:42;;;;;;;0.65;0.50;;;;;;;;;;5023174;28;41862;-65
2024/01/24 02:43:11;;;;;;;0.65;0.40;;;;;;;;;;5021021;28;41890;-66
2024/01/24 02:45:39;;;;;;;0.38;0.38;;;;;;;;;;5011332;28;41341;-66
2024/01/24 02:48:08;;;;;;;1.05;0.40;;;;;;;;;;5010690;28;42325;-65
2024/01/24 02:50:35;;;;;;;0.57;0.30;;;;;;;;;;5020796;28;41800;-65
2024/01/24 02:53:04;;;;;;;0.68;0.40;;;;;;;;;;5015671;28;42474;-65
2024/01/24 02:55:31;;;;;;;0.65;0.40;;;;;;;;;;5024578;28;42235;-66
2024/01/24 02:57:59;;;;;;;0.80;0.40;;;;;;;;;;5024720;28;41119;-65
2024/01/24 03:00:29;;;;;;;0.65;0.30;;;;;;;;;;5023937;28;41411;-65
2024/01/24 03:02:57;;;;;;;1.25;0.40;;;;;;;;;;5023691;28;41999;-65
2024/01/24 03:05:25;;;;;;;0.30;0.30;;;;;;;;;;5022505;28;41930;-65
2024/01/24 03:07:53;;;;;;;0.55;0.50;;;;;;;;;;5025495;28;41287;-65
2024/01/24 03:10:22;;;;;;;2.05;0.40;;;;;;;;;;5024914;28;41995;-65
2024/01/24 03:12:50;;;;;;;0.60;0.30;;;;;;;;;;5022679;28;42940;-65
2024/01/24 03:15:18;;;;;;;1.83;0.50;;;;;;;;;;5023080;28;42278;-65
2024/01/24 03:17:47;;;;;;;1.33;0.30;;;;;;;;;;5023269;28;41245;-64
2024/01/24 03:20:16;;;;;;;0.70;0.40;;;;;;;;;;5023869;28;41818;-65
2024/01/24 03:22:45;;;;;;;1.25;0.50;;;;;;;;;;5022109;28;41288;-65
2024/01/24 03:25:16;;;;;;;2.17;0.50;;;;;;;;;;5024187;28;41929;-65
2024/01/24 03:27:44;;;;;;;1.50;0.80;;;;;;;;;;5021011;28;41868;-65
2024/01/24 03:30:12;;;;;;;1.55;0.65;;;;;;;;;;5025148;28;43083;-65
2024/01/24 03:32:42;;;;;;;1.48;0.40;;;;;;;;;;5024224;28;42217;-64
2024/01/24 03:35:11;;;;;;;2.15;0.50;;;;;;;;;;5024335;28;42322;-65
2024/01/24 03:37:39;;;;;;;1.30;0.55;;;;;;;;;;5011729;28;41412;-65
2024/01/24 03:40:08;;;;;;;1.65;0.60;;;;;;;;;;5012511;28;42197;-65
2024/01/24 03:42:35;;;;;;;1.00;0.47;;;;;;;;;;5015384;28;42871;-65
2024/01/24 03:45:04;;;;;;;1.95;0.40;;;;;;;;;;5018453;28;42892;-65
2024/01/24 03:47:32;;;;;;;1.25;0.45;;;;;;;;;;5019529;28;41899;-65
2024/01/24 03:50:00;;;;;;;2.30;0.50;;;;;;;;;;5007588;28;42723;-65
2024/01/24 03:52:29;;;;;;;1.83;0.32;;;;;;;;;;5020022;28;41224;-65
2024/01/24 03:54:57;;;;;;;2.78;0.55;;;;;;;;;;5026860;28;42626;-64
2024/01/24 03:57:25;;;;;;;2.67;0.70;;;;;;;;;;5025716;28;40969;-65
2024/01/24 03:59:53;;;;;;;1.27;0.50;;;;;;;;;;5025733;28;41584;-65
2024/01/24 04:02:21;;;;;;;2.65;0.88;;;;;;;;;;5026125;28;42118;-65
2024/01/24 04:04:49;;;;;;;0.95;0.50;;;;;;;;;;5023371;28;41041;-65
2024/01/24 04:07:17;;;;;;;2.20;0.80;;;;;;;;;;5024040;28;41157;-65
2024/01/24 04:09:47;;;;;;;4.85;1.17;;;;;;;;;;5027450;28;42777;-65
2024/01/24 04:12:15;;;;;;;3.17;1.02;;;;;;;;;;5013380;28;41395;-65
2024/01/24 04:14:43;;;;;;;3.15;1.20;;;;;;;;;;5027372;28;41962;-64
2024/01/24 04:17:11;;;;;;;4.15;1.20;;;;;;;;;;5026014;28;40691;-64
2024/01/24 04:19:39;;;;;;;4.90;0.90;;;;;;;;;;5027143;28;41906;-65
2024/01/24 04:22:07;;;;;;;4.07;0.77;;;;;;;;;;5026247;28;41583;-65
2024/01/24 04:24:35;;;;;;;2.83;0.90;;;;;;;;;;5026908;28;41334;-65
2024/01/24 04:27:04;;;;;;;1.55;0.77;;;;;;;;;;5025739;28;41221;-65
2024/01/24 04:29:32;;;;;;;6.03;1.17;;;;;;;;;;5022306;28;42623;-65
2024/01/24 04:32:00;;;;;;;5.35;1.20;;;;;;;;;;5025173;28;41245;-64
2024/01/24 04:34:28;;;;;;;6.15;1.40;;;;;;;;;;5026435;28;41637;-65
2024/01/24 04:36:56;;;;;;;5.90;1.85;;;;;;;;;;5027197;28;41873;-65
2024/01/24 04:39:24;;;;;;;8.20;1.38;;;;;;;;;;5026398;28;40655;-65
2024/01/24 04:41:53;;;;;;;8.05;1.35;;;;;;;;;;5027587;28;42055;-65
2024/01/24 04:44:36;;;;;;;11.38;2.25;;;;;;;;;;5024427;28;41067;-65
2024/01/24 04:47:04;;;;;;;5.18;1.20;;;;;;;;;;5026463;28;41669;-65
2024/01/24 04:49:32;;;;;;;4.82;1.30;;;;;;;;;;5026660;28;41485;-65
2024/01/24 04:52:12;;;;;;;8.02;1.65;;;;;;;;;;5025346;28;41475;-65
2024/01/24 04:54:41;;;;;;;6.65;2.05;;;;;;;;;;5025987;28;42711;-65
2024/01/24 04:57:09;;;;;;;5.30;1.70;;;;;;;;;;5023734;28;42291;-65
2024/01/24 04:59:40;;;;;;;3.08;1.20;;;;;;;;;;5022981;28;41772;-65
2024/01/24 05:02:20;;;;;;;10.15;1.80;;;;;;;;;;5026997;28;42859;-65
2024/01/24 05:04:48;;;;;;;4.78;1.95;;;;;;;;;;5021114;28;40325;-65
2024/01/24 05:07:16;;;;;;;7.75;1.95;;;;;;;;;;5027091;28;41703;-65
2024/01/24 05:09:44;;;;;;;5.85;2.05;;;;;;;;;;5025419;28;42628;-66
2024/01/24 05:12:13;;;;;;;14.85;2.78;;;;;;;;;;5021124;28;41570;-65
2024/01/24 05:14:42;;;;;;;9.30;2.20;;;;;;;;;;5024825;28;42589;-65
2024/01/24 05:17:10;;;;;;;11.38;2.78;;;;;;;;;;5024286;28;41984;-65
2024/01/24 05:19:38;;;;;;;9.43;2.60;;;;;;;;;;5016625;28;41524;-65
2024/01/24 05:22:07;;;;;;;6.80;1.98;;;;;;;;;;5020781;28;41880;-64
2024/01/24 05:24:35;;;;;;;9.20;2.55;;;;;;;;;;5026231;28;40861;-65
2024/01/24 05:27:03;;;;;;;11.05;2.58;;;;;;;;;;5020409;28;42662;-65
2024/01/24 05:29:31;;;;;;;7.45;1.80;;;;;;;;;;5026303;28;42363;-65
2024/01/24 05:32:00;;;;;;;5.88;1.52;;;;;;;;;;5024982;28;40761;-65
2024/01/24 05:34:28;;;;;;;7.28;2.03;;;;;;;;;;5026125;28;41861;-65
2024/01/24 05:36:57;;;;;;;6.70;2.55;;;;;;;;;;5025050;28;41649;-65
2024/01/24 05:39:25;;;;;;;8.30;2.38;;;;;;;;;;5013409;28;41843;-64
2024/01/24 05:41:53;;;;;;;8.90;2.15;;;;;;;;;;5023824;28;41482;-65
2024/01/24 05:44:21;;;;;;;19.02;3.92;;;;;;;;;;5024108;28;41474;-65
2024/01/24 05:46:50;;;;;;;9.80;2.80;;;;;;;;;;5019323;28;41372;-65
2024/01/24 05:49:20;;;;;;;12.85;4.38;;;;;;;;;;5021008;28;42927;-64
2024/01/24 05:51:48;;;;;;;15.15;4.15;;;;;;;;;;5024926;28;39687;-65
2024/01/24 05:54:16;;;;;;;13.68;3.00;;;;;;;;;;5025401;28;41783;-65
2024/01/24 05:56:44;;;;;;;12.25;3.13;;;;;;;;;;5023766;28;41633;-65
2024/01/24 05:59:12;;;;;;;15.18;3.80;;;;;;;;;;5021754;28;41383;-65
2024/01/24 06:01:43;;;;;;;11.18;3.47;;;;;;;;;;5026295;28;41261;-65
2024/01/24 06:04:11;;;;;;;16.63;4.55;;;;;;;;;;5025737;28;33971;-65
2024/01/24 06:06:41;;;;;;;11.23;2.95;;;;;;;;;;5026091;28;41085;-65
2024/01/24 06:09:09;;;;;;;18.80;4.70;;;;;;;;;;5024850;28;42706;-65
2024/01/24 06:11:37;;;;;;;13.27;3.03;;;;;;;;;;5026484;28;41357;-65
2024/01/24 06:14:04;;;;;;;8.93;3.33;;;;;;;;;;5025806;28;41734;-66
2024/01/24 06:16:32;;;;;;;13.18;3.25;;;;;;;;;;5024910;28;42063;-65
2024/01/24 06:19:00;;;;;;;13.68;3.22;;;;;;;;;;5025492;28;41224;-65
2024/01/24 06:21:28;;;;;;;21.48;3.97;;;;;;;;;;5026776;28;42689;-65
2024/01/24 06:23:57;;;;;;;13.05;3.60;;;;;;;;;;5005778;28;41543;-65
2024/01/24 06:26:25;;;;;;;16.83;3.72;;;;;;;;;;5006720;28;41935;-65
2024/01/24 06:28:53;;;;;;;15.73;4.20;;;;;;;;;;5006066;28;41885;-65
2024/01/24 06:31:21;;;;;;;10.57;3.20;;;;;;;;;;5005377;28;41931;-65
2024/01/24 06:33:50;;;;;;;14.45;3.85;;;;;;;;;;5005617;28;41217;-65
2024/01/24 06:36:18;;;;;;;11.60;3.22;;;;;;;;;;5005499;28;41960;-64
2024/01/24 06:38:46;;;;;;;14.45;4.10;;;;;;;;;;5005318;28;42357;-65
2024/01/24 06:41:15;;;;;;;14.55;4.63;;;;;;;;;;5004814;28;41323;-65
2024/01/24 06:43:43;;;;;;;13.70;3.20;;;;;;;;;;5002960;28;42017;-65
2024/01/24 06:46:11;;;;;;;17.70;4.07;;;;;;;;;;5006305;28;40746;-65
2024/01/24 06:48:41;;;;;;;21.63;4.35;;;;;;;;;;5004980;28;41594;-65
2024/01/24 06:51:12;;;;;;;15.57;4.28;;;;;;;;;;5005028;28;41160;-65
2024/01/24 06:53:40;;;;;;;20.75;5.20;;;;;;;;;;5004877;28;41621;-65
2024/01/24 06:56:09;;;;;;;12.73;3.72;;;;;;;;;;5001392;28;43066;-65
2024/01/24 06:58:40;;;;;;;15.85;4.10;;;;;;;;;;5004626;28;40895;-65
2024/01/24 07:01:08;;;;;;;18.13;5.70;;;;;;;;;;5005358;28;41366;-65
2024/01/24 07:03:36;;;;;;;15.43;5.03;;;;;;;;;;4995071;28;43021;-65
2024/01/24 07:06:05;;;;;;;11.23;3.75;;;;;;;;;;5005047;28;40961;-65
2024/01/24 07:08:34;;;;;;;16.45;5.45;;;;;;;;;;5006141;28;42123;-65
2024/01/24 07:11:05;;;;;;;14.57;4.03;;;;;;;;;;5005413;28;41154;-65
2024/01/24 07:13:33;;;;;;;21.45;5.28;;;;;;;;;;4990290;28;41190;-65
2024/01/24 07:16:04;;;;;;;19.52;4.60;;;;;;;;;;5005517;28;42702;-64
2024/01/24 07:18:32;;;;;;;13.88;3.60;;;;;;;;;;5003975;28;41596;-65
2024/01/24 07:21:01;;;;;;;19.83;5.43;;;;;;;;;;5005754;28;41705;-65
2024/01/24 07:23:29;;;;;;;22.05;5.45;;;;;;;;;;5020201;28;43080;-65
2024/01/24 07:25:57;;;;;;;13.05;3.85;;;;;;;;;;5024494;28;41290;-65
2024/01/24 07:28:29;;;;;;;20.15;4.82;;;;;;;;;;5023827;28;42212;-65
2024/01/24 07:30:57;;;;;;;14.07;4.43;;;;;;;;;;5020621;28;42889;-65
2024/01/24 07:33:26;;;;;;;18.15;4.65;;;;;;;;;;5019706;28;41681;-65
2024/01/24 07:35:54;;;;;;;18.85;4.63;;;;;;;;;;5021731;28;42164;-65
2024/01/24 07:38:22;;;;;;;24.42;6.30;;;;;;;;;;5023810;28;41215;-65
2024/01/24 07:40:50;;;;;;;25.75;5.28;;;;;;;;;;5015181;28;42381;-65
2024/01/24 07:43:19;;;;;;;18.42;4.68;;;;;;;;;;5026846;28;43450;-65
2024/01/24 07:45:47;;;;;;;15.85;4.35;;;;;;;;;;5028089;28;41176;-65
2024/01/24 07:48:15;;;;;;;17.85;4.90;;;;;;;;;;5030334;28;42701;-65
2024/01/24 07:50:45;;;;;;;13.75;3.60;;;;;;;;;;5026524;28;42764;-65
2024/01/24 07:53:14;;;;;;;13.85;3.72;;;;;;;;;;5031808;28;40832;-65
2024/01/24 07:55:42;;;;;;;17.23;4.90;;;;;;;;;;5027828;28;42171;-65
2024/01/24 07:58:26;;;;;;;21.85;5.35;;;;;;;;;;5020959;28;42561;-64
2024/01/24 08:00:55;;;;;;;24.75;6.63;;;;;;;;;;5025304;28;41708;-64
2024/01/24 08:03:23;;;;;;;20.58;4.82;;;;;;;;;;5029098;28;43144;-65
2024/01/24 08:05:53;;;;;;;14.10;3.92;;;;;;;;;;5014575;28;40704;-65
2024/01/24 08:08:21;;;;;;;22.15;5.38;;;;;;;;;;5030843;28;41835;-65
2024/01/24 08:10:49;;;;;;;17.67;5.10;;;;;;;;;;5030297;28;43116;-65
2024/01/24 08:13:17;;;;;;;14.27;4.13;;;;;;;;;;5027410;28;40826;-65
2024/01/24 08:15:46;;;;;;;27.35;6.38;;;;;;;;;;5015675;28;41969;-64
2024/01/24 08:18:14;;;;;;;16.67;4.78;;;;;;;;;;5021623;28;41489;-64
2024/01/24 08:20:42;;;;;;;17.55;5.30;;;;;;;;;;5025546;28;42373;-64
2024/01/24 08:23:12;;;;;;;14.88;4.00;;;;;;;;;;5020689;28;42632;-63
2024/01/24 08:25:41;;;;;;;21.20;5.25;;;;;;;;;;5017678;28;40736;-64
2024/01/24 08:28:09;;;;;;;18.70;5.22;;;;;;;;;;5029094;28;42332;-65
2024/01/24 08:30:37;;;;;;;16.45;4.32;;;;;;;;;;5014611;28;42195;-66
2024/01/24 08:33:05;;;;;;;25.92;5.15;;;;;;;;;;5019360;28;41923;-72
2024/01/24 08:35:35;;;;;;;16.35;4.80;;;;;;;;;;5027735;28;41840;-76
2024/01/24 08:38:04;;;;;;;21.30;5.60;;;;;;;;;;5029852;28;41113;-76
2024/01/24 08:40:33;;;;;;;21.92;5.35;;;;;;;;;;5027274;28;42377;-75
2024/01/24 08:43:01;;;;;;;23.55;6.65;;;;;;;;;;5025310;28;41846;-66
2024/01/24 08:45:29;;;;;;;22.17;5.95;;;;;;;;;;5023493;28;41641;-66
2024/01/24 08:47:58;;;;;;;19.45;4.80;;;;;;;;;;5023106;28;41852;-65
2024/01/24 08:50:26;;;;;;;21.00;5.63;;;;;;;;;;5020980;28;42207;-67
2024/01/24 08:52:54;;;;;;;17.13;4.35;;;;;;;;;;5026526;28;41413;-68
2024/01/24 08:55:22;;;;;;;24.02;4.95;;;;;;;;;;5025266;28;42168;-70
2024/01/24 08:57:51;;;;;;;24.23;5.70;;;;;;;;;;5023477;28;42067;-70
2024/01/24 09:00:19;;;;;;;20.35;6.40;;;;;;;;;;5024831;28;42036;-73
2024/01/24 09:02:48;;;;;;;18.40;4.95;;;;;;;;;;5027718;28;41689;-70
2024/01/24 09:05:18;;;;;;;25.48;6.00;;;;;;;;;;5022326;28;41359;-70
2024/01/24 09:07:47;;;;;;;24.35;5.68;;;;;;;;;;5018969;28;41866;-68
2024/01/24 09:10:15;;;;;;;23.67;5.72;;;;;;;;;;5025601;28;42154;-71
2024/01/24 09:12:43;;;;;;;27.30;6.75;;;;;;;;;;5026266;28;42265;-70
2024/01/24 09:15:13;;;;;;;21.48;4.68;;;;;;;;;;5026053;28;41822;-69
2024/01/24 09:17:41;;;;;;;18.17;5.55;;;;;;;;;;5014915;28;41653;-69
2024/01/24 09:20:09;;;;;;;21.40;5.32;;;;;;;;;;5019157;28;41954;-72
2024/01/24 09:22:37;;;;;;;24.45;5.65;;;;;;;;;;5019916;28;41981;-72
2024/01/24 09:25:06;;;;;;;21.50;5.05;;;;;;;;;;5022714;28;41358;-72
2024/01/24 09:27:37;;;;;;;17.60;4.95;;;;;;;;;;5026033;28;42223;-71
2024/01/24 09:30:06;;;;;;;21.33;6.32;;;;;;;;;;5018967;28;42160;-72
2024/01/24 09:32:35;;;;;;;22.60;5.15;;;;;;;;;;5016010;28;41224;-71
2024/01/24 09:35:03;;;;;;;18.73;5.38;;;;;;;;;;5026503;28;41935;-74
2024/01/24 09:37:32;;;;;;;22.73;5.75;;;;;;;;;;5020929;28;41501;-71
2024/01/24 09:40:00;;;;;;;23.17;5.72;;;;;;;;;;5013693;28;41521;-73
2024/01/24 09:42:28;;;;;;;22.02;6.05;;;;;;;;;;5026569;28;42210;-71
2024/01/24 09:44:58;;;;;;;20.23;4.85;;;;;;;;;;5026908;28;41253;-72
2024/01/24 09:47:26;;;;;;;19.52;5.35;;;;;;;;;;5018775;28;41552;-74
2024/01/24 09:49:55;;;;;;;20.85;5.78;;;;;;;;;;5016648;28;41988;-73
2024/01/24 09:52:26;;;;;;;21.60;5.53;;;;;;;;;;5021405;28;40780;-71
2024/01/24 09:54:54;;;;;;;20.83;4.97;;;;;;;;;;5026957;28;43161;-72
2024/01/24 09:57:22;;;;;;;26.80;6.70;;;;;;;;;;5024193;28;41780;-71
2024/01/24 09:59:51;;;;;;;21.58;5.07;;;;;;;;;;5021615;28;41909;-68
2024/01/24 10:02:19;;;;;;;16.92;5.10;;;;;;;;;;5022740;28;42638;-68
2024/01/24 10:04:47;;;;;;;20.90;6.10;;;;;;;;;;5020637;28;41893;-67
2024/01/24 10:07:17;;;;;;;23.75;6.38;;;;;;;;;;5018943;28;41310;-72
2024/01/24 10:09:46;;;;;;;25.35;5.63;;;;;;;;;;5026330;28;42623;-71
2024/01/24 10:12:14;;;;;;;17.70;5.15;;;;;;;;;;5025652;28;41470;-75
2024/01/24 10:14:42;;;;;;;20.52;5.70;;;;;;;;;;5013550;28;42201;-72
2024/01/24 10:17:11;;;;;;;15.73;5.25;;;;;;;;;;5024295;28;41767;-67
2024/01/24 10:19:39;;;;;;;18.92;4.45;;;;;;;;;;5023876;28;40951;-67
2024/01/24 10:22:07;;;;;;;22.65;5.85;;;;;;;;;;5024368;28;41992;-65
2024/01/24 10:24:39;;;;;;;24.58;6.22;;;;;;;;;;5020610;28;42695;-66
2024/01/24 10:27:07;;;;;;;22.05;6.00;;;;;;;;;;5020235;28;42640;-68
2024/01/24 10:29:35;;;;;;;19.85;5.60;;;;;;;;;;5017398;28;42558;-68
2024/01/24 10:32:04;;;;;;;23.52;5.07;;;;;;;;;;5017549;28;42381;-69
2024/01/24 10:34:33;;;;;;;23.70;6.03;;;;;;;;;;5024786;28;41630;-68
2024/01/24 10:37:04;;;;;;;28.85;6.28;;;;;;;;;;5025470;28;41682;-71
2024/01/24 10:39:33;;;;;;;26.48;5.40;;;;;;;;;;5015996;28;41138;-70
2024/01/24 10:42:03;;;;;;;21.00;5.65;;;;;;;;;;5026305;28;41893;-70
2024/01/24 10:44:38;;;;;;;18.05;4.95;;;;;;;;;;5022075;28;42075;-70
2024/01/24 10:47:06;;;;;;;22.60;4.90;;;;;;;;;;5014269;28;41453;-72
2024/01/24 10:49:34;;;;;;;26.58;5.95;;;;;;;;;;5016114;28;42237;-72
2024/01/24 10:52:03;;;;;;;24.48;5.72;;;;;;;;;;5022056;28;41894;-72
2024/01/24 10:54:31;;;;;;;21.88;5.43;;;;;;;;;;5017011;28;42631;-72
2024/01/24 10:56:59;;;;;;;18.63;5.45;;;;;;;;;;5020947;28;41513;-72
2024/01/24 10:59:28;;;;;;;22.35;6.20;;;;;;;;;;5021570;28;41566;-72
2024/01/24 11:01:57;;;;;;;17.30;4.70;;;;;;;;;;5022355;28;41823;-72
2024/01/24 11:04:25;;;;;;;20.20;5.75;;;;;;;;;;4999992;28;42092;-70
2024/01/24 11:06:53;;;;;;;19.20;5.38;;;;;;;;;;5016516;28;41047;-66
2024/01/24 11:09:23;;;;;;;22.95;5.85;;;;;;;;;;5015171;28;42440;-73
2024/01/24 11:11:52;;;;;;;21.80;6.10;;;;;;;;;;5009903;28;42452;-74
2024/01/24 11:14:29;;;;;;;20.30;4.78;;;;;;;;;;5019296;28;41973;-72
2024/01/24 11:16:59;;;;;;;24.60;4.97;;;;;;;;;;5013183;28;42812;-78
2024/01/24 11:19:28;;;;;;;19.08;5.50;;;;;;;;;;5018505;28;42150;-78
2024/01/24 11:21:58;;;;;;;18.38;4.38;;;;;;;;;;5019032;28;42963;-73
2024/01/24 11:24:48;;;;;;;22.83;5.72;;;;;;;;;;5019764;28;42125;-72
2024/01/24 11:27:25;;;;;;;25.23;6.15;;;;;;;;;;5014076;28;41651;-71
2024/01/24 11:29:54;;;;;;;20.52;5.47;;;;;;;;;;5021574;28;41915;-71
2024/01/24 11:32:41;;;;;;;25.95;5.72;;;;;;;;;;5021811;28;43495;-71
2024/01/24 11:35:29;;;;;;;25.77;5.65;;;;;;;;;;5020974;28;41140;-76
2024/01/24 11:37:57;;;;;;;24.90;4.63;;;;;;;;;;5016346;28;42196;-75
2024/01/24 11:40:39;;;;;;;20.33;5.05;;;;;;;;;;5022088;28;41023;-76
2024/01/24 11:43:07;;;;;;;24.42;6.28;;;;;;;;;;5021010;28;41881;-69
2024/01/24 11:45:35;;;;;;;19.15;5.18;;;;;;;;;;5009853;28;42516;-68
2024/01/24 11:48:04;;;;;;;20.20;5.20;;;;;;;;;;5006568;28;39437;-68
2024/01/24 11:50:36;;;;;;;15.18;4.85;;;;;;;;;;5020468;28;41100;-68
2024/01/24 11:53:04;;;;;;;14.00;4.30;;;;;;;;;;5009032;28;42139;-68
2024/01/24 11:55:32;;;;;;;17.08;4.53;;;;;;;;;;5022487;28;40934;-69
2024/01/24 11:58:02;;;;;;;21.05;5.35;;;;;;;;;;5017862;28;41677;-68
2024/01/24 12:00:31;;;;;;;22.98;5.97;;;;;;;;;;5015604;28;41310;-68
2024/01/24 12:02:59;;;;;;;18.90;5.05;;;;;;;;;;5018243;28;41296;-68
2024/01/24 12:05:27;;;;;;;19.40;4.70;;;;;;;;;;5019809;28;43149;-68
2024/01/24 12:07:57;;;;;;;19.90;5.20;;;;;;;;;;5005597;28;41006;-68
2024/01/24 12:10:25;;;;;;;18.02;4.90;;;;;;;;;;5010398;28;41472;-68
2024/01/24 12:12:52;;;;;;;21.38;5.85;;;;;;;;;;5016287;28;43129;-68
2024/01/24 12:15:20;;;;;;;25.55;5.60;;;;;;;;;;5018469;28;41175;-69
2024/01/24 12:17:49;;;;;;;14.55;4.45;;;;;;;;;;5025892;28;41871;-68
2024/01/24 12:20:22;;;;;;;15.95;4.20;;;;;;;;;;5025277;28;42219;-68
2024/01/24 12:22:50;;;;;;;13.77;3.92;;;;;;;;;;5021678;28;41251;-68
2024/01/24 12:25:19;;;;;;;20.50;5.93;;;;;;;;;;5024323;28;42823;-68
2024/01/24 12:27:48;;;;;;;20.13;4.65;;;;;;;;;;5022702;28;42588;-69
2024/01/24 12:30:16;;;;;;;17.70;5.45;;;;;;;;;;5022704;28;41685;-69
2024/01/24 12:32:44;;;;;;;15.60;4.65;;;;;;;;;;5025621;28;42988;-68
2024/01/24 12:35:12;;;;;;;12.10;4.03;;;;;;;;;;5024301;28;41983;-69
2024/01/24 12:37:41;;;;;;;18.48;4.60;;;;;;;;;;5011550;28;42978;-68
2024/01/24 12:40:11;;;;;;;14.63;4.32;;;;;;;;;;5013059;28;40828;-68
2024/01/24 12:42:41;;;;;;;10.98;3.95;;;;;;;;;;5021800;28;42996;-69
2024/01/24 12:45:11;;;;;;;11.95;3.55;;;;;;;;;;5023837;28;42679;-71
2024/01/24 12:47:40;;;;;;;15.60;3.75;;;;;;;;;;5024568;28;42196;-71
2024/01/24 12:50:10;;;;;;;15.05;4.50;;;;;;;;;;5024991;28;43101;-76
2024/01/24 12:52:39;;;;;;;9.38;3.17;;;;;;;;;;5015727;28;42161;-75
2024/01/24 12:55:07;;;;;;;12.73;3.92;;;;;;;;;;5022069;28;40908;-75
2024/01/24 12:57:35;;;;;;;20.20;4.30;;;;;;;;;;5021293;28;42426;-75
2024/01/24 13:00:06;;;;;;;17.95;4.78;;;;;;;;;;5021510;28;43163;-75
2024/01/24 13:02:34;;;;;;;20.27;4.40;;;;;;;;;;5010668;28;41745;-74
2024/01/24 13:05:02;;;;;;;13.52;3.97;;;;;;;;;;5014516;28;42073;-72
2024/01/24 13:07:31;;;;;;;14.38;3.97;;;;;;;;;;5008715;28;41760;-71
2024/01/24 13:09:59;;;;;;;11.20;3.83;;;;;;;;;;5024465;28;41873;-70
2024/01/24 13:12:33;;;;;;;13.57;3.90;;;;;;;;;;5023462;28;42280;-74
2024/01/24 13:15:04;;;;;;;12.82;3.58;;;;;;;;;;5019250;28;41512;-73
2024/01/24 13:17:33;;;;;;;13.05;4.07;;;;;;;;;;5024202;28;42271;-75
2024/01/24 13:20:04;;;;;;;15.43;3.85;;;;;;;;;;5020342;28;43047;-77
2024/01/24 13:22:32;;;;;;;14.43;3.88;;;;;;;;;;5022018;28;41715;-74
2024/01/24 13:25:00;;;;;;;12.50;3.92;;;;;;;;;;5018819;28;42357;-74
2024/01/24 13:27:29;;;;;;;14.23;3.60;;;;;;;;;;5023993;28;41649;-73
2024/01/24 13:29:57;;;;;;;11.50;4.03;;;;;;;;;;5017009;28;41928;-74
2024/01/24 13:32:25;;;;;;;14.93;3.72;;;;;;;;;;5023302;28;43140;-73
2024/01/24 13:34:54;;;;;;;14.52;4.22;;;;;;;;;;5024506;28;39937;-74
2024/01/24 13:37:22;;;;;;;18.02;4.05;;;;;;;;;;5024492;28;42437;-74
2024/01/24 13:39:50;;;;;;;14.30;3.67;;;;;;;;;;5023763;28;42185;-73
2024/01/24 13:42:18;;;;;;;15.70;4.53;;;;;;;;;;5026398;28;41485;-74
2024/01/24 13:44:46;;;;;;;11.60;3.45;;;;;;;;;;5017340;28;41650;-73
2024/01/24 13:47:14;;;;;;;16.55;3.90;;;;;;;;;;5023826;28;41921;-74
2024/01/24 13:49:43;;;;;;;13.80;3.50;;;;;;;;;;5024352;28;42342;-76
2024/01/24 13:52:12;;;;;;;8.05;3.50;;;;;;;;;;5024745;28;42092;-75
2024/01/24 13:54:40;;;;;;;16.73;4.00;;;;;;;;;;5016714;28;42009;-76
2024/01/24 13:57:08;;;;;;;13.70;3.65;;;;;;;;;;5026211;28;42042;-77
2024/01/24 13:59:36;;;;;;;12.32;4.38;;;;;;;;;;5023468;28;41486;-76
2024/01/24 14:02:04;;;;;;;14.25;4.25;;;;;;;;;;5007987;28;41942;-75
2024/01/24 14:04:33;;;;;;;14.68;4.07;;;;;;;;;;5018509;28;41432;-75
2024/01/24 14:07:01;;;;;;;16.90;3.95;;;;;;;;;;5023292;28;42745;-74
2024/01/24 14:09:30;;;;;;;13.00;3.72;;;;;;;;;;5022869;28;41400;-76
2024/01/24 14:11:59;;;;;;;15.82;4.25;;;;;;;;;;5024292;28;41581;-74
2024/01/24 14:14:27;;;;;;;13.63;3.50;;;;;;;;;;5022538;28;41056;-76
2024/01/24 14:16:59;;;;;;;28.30;5.85;;;;;;;;;;5018874;28;41791;-76
2024/01/24 14:19:27;;;;;;;12.40;3.00;;;;;;;;;;5015281;28;42703;-71
2024/01/24 14:21:55;;;;;;;16.55;3.97;;;;;;;;;;4999823;28;41008;-75
2024/01/24 14:24:23;;;;;;;10.27;3.28;;;;;;;;;;5022578;28;42174;-74
2024/01/24 14:26:53;;;;;;;10.50;3.40;;;;;;;;;;5022486;28;42264;-74
2024/01/24 14:29:23;;;;;;;14.88;4.25;;;;;;;;;;5013857;28;41611;-74
2024/01/24 14:31:51;;;;;;;17.10;3.42;;;;;;;;;;5017491;28;42730;-74
2024/01/24 14:34:18;;;;;;;16.67;4.35;;;;;;;;;;5021395;28;41775;-75
2024/01/24 14:36:47;;;;;;;11.63;3.75;;;;;;;;;;5023669;28;41976;-73
2024/01/24 14:39:22;;;;;;;9.70;3.65;;;;;;;;;;5018143;28;41607;-74
2024/01/24 14:41:50;;;;;;;15.50;4.25;;;;;;;;;;5022149;28;41804;-74
2024/01/24 14:44:20;;;;;;;14.40;3.75;;;;;;;;;;5022863;28;41594;-74
2024/01/24 14:46:48;;;;;;;13.50;3.90;;;;;;;;;;5008637;28;41967;-74